Time;durP1;ratioP1;P1;durP2;ratioP2;P2;SDS_P1;SDS_P2;PMS_P1;PMS_P2;Temp;Humidity;BMP_temperature;BMP_pressure;BME280_temperature;BME280_humidity;BME280_pressure;Samples;Min_cycle;Max_cycle;Signal;HPM_P1;HPM_P2
2024/02/19 00:01:21;;;;;;;;;;;;;;;-146.32;100.00;63746.28;4135415;28;19932;-81
2024/02/19 00:03:45;;;;;;;;;;;;;;;-146.32;100.00;63746.28;4137284;28;19955;-84
2024/02/19 00:06:06;;;;;;;;;;;;;;;-146.32;100.00;63746.28;4122378;28;20516;-82
2024/02/19 00:08:27;;;;;;;;;;;;;;;-146.32;100.00;63746.28;4137887;28;20012;-84
2024/02/19 00:10:48;;;;;;;;;;;;;;;-146.32;100.00;63746.28;4137927;28;19945;-82
2024/02/19 00:13:09;;;;;;;;;;;;;;;-146.32;100.00;63746.28;4121992;28;19932;-82
2024/02/19 00:15:31;;;;;;;;;;;;;;;-146.32;100.00;63746.28;4136814;28;19936;-81
2024/02/19 00:17:51;;;;;;;;;;;;;;;-146.32;100.00;63746.28;4135498;28;19999;-83
2024/02/19 00:20:14;;;;;;;;;;;;;;;-146.32;100.00;63746.28;4136190;28;19972;-82
2024/02/19 00:22:35;;;;;;;;;;;;;;;-146.32;100.00;63746.28;4121584;28;20005;-82
2024/02/19 00:24:56;;;;;;;;;;;;;;;-146.32;100.00;63746.28;4136395;28;20338;-81
2024/02/19 00:27:17;;;;;;;;;;;;;;;-146.32;100.00;63746.28;4136568;28;19936;-83
2024/02/19 00:29:38;;;;;;;;;;;;;;;-146.32;100.00;63746.28;4135936;28;19940;-81
2024/02/19 00:31:59;;;;;;;;;;;;;;;-146.32;100.00;63746.28;4136386;28;19936;-83
2024/02/19 00:34:19;;;;;;;;;;;;;;;-146.32;100.00;63746.28;4135313;28;19996;-81
2024/02/19 00:36:42;;;;;;;;;;;;;;;-146.32;100.00;63746.28;4136104;28;19932;-81
2024/02/19 00:39:02;;;;;;;;;;;;;;;-146.32;100.00;63746.28;4137075;28;19933;-85
2024/02/19 00:41:23;;;;;;;;;;;;;;;-146.32;100.00;63746.28;4124222;28;19933;-83
2024/02/19 00:43:45;;;;;;;;;;;;;;;-146.32;100.00;63746.28;4110656;28;19952;-83
2024/02/19 00:46:06;;;;;;;;;;;;;;;-146.32;100.00;63746.28;4120362;28;20317;-83
2024/02/19 00:48:26;;;;;;;;;;;;;;;-146.32;100.00;63746.28;4107944;28;19938;-82
2024/02/19 00:50:47;;;;;;;;;;;;;;;-146.32;100.00;63746.28;4121822;28;20110;-81
2024/02/19 00:53:10;;;;;;;;;;;;;;;-146.32;100.00;63746.28;4122880;28;20025;-82
2024/02/19 00:55:31;;;;;;;;;;;;;;;-146.32;100.00;63746.28;4123323;28;20021;-83
2024/02/19 00:57:52;;;;;;;;;;;;;;;-146.32;100.00;63746.28;4125719;28;20285;-81
2024/02/19 01:00:12;;;;;;;;;;;;;;;-146.32;100.00;63746.28;4127081;28;20345;-82
2024/02/19 01:02:33;;;;;;;;;;;;;;;-146.32;100.00;63746.28;4110634;28;20005;-82
2024/02/19 01:04:54;;;;;;;;;;;;;;;-146.32;100.00;63746.28;4124707;28;20276;-84
2024/02/19 01:07:15;;;;;;;;;;;;;;;-146.32;100.00;63746.28;4125593;28;19996;-82
2024/02/19 01:09:37;;;;;;;;;;;;;;;-146.32;100.00;63746.28;4125735;28;20483;-82
2024/02/19 01:12:01;;;;;;;;;;;;;;;-146.32;100.00;63746.28;4125572;28;19999;-82
2024/02/19 01:14:21;;;;;;;;;;;;;;;-146.32;100.00;63746.28;4124867;28;19933;-82
2024/02/19 01:16:43;;;;;;;;;;;;;;;-146.32;100.00;63746.28;4125538;28;19976;-82
2024/02/19 01:19:05;;;;;;;;;;;;;;;-146.32;100.00;63746.28;4124830;28;19961;-81
2024/02/19 01:21:26;;;;;;;;;;;;;;;-146.32;100.00;63746.28;4125444;28;19992;-81
2024/02/19 01:23:47;;;;;;;;;;;;;;;-146.32;100.00;63746.28;4125598;28;19992;-82
2024/02/19 01:26:09;;;;;;;;;;;;;;;-146.32;100.00;63746.28;4125070;28;20489;-85
2024/02/19 01:28:30;;;;;;;;;;;;;;;-146.32;100.00;63746.28;4109059;28;19934;-82
2024/02/19 01:30:51;;;;;;;;;;;;;;;-146.32;100.00;63746.28;4125187;28;19952;-83
2024/02/19 01:33:11;;;;;;;;;;;;;;;-146.32;100.00;63746.28;4124820;28;20281;-83
2024/02/19 01:35:33;;;;;;;;;;;;;;;-146.32;100.00;63746.28;4124418;28;19945;-82
2024/02/19 01:37:54;;;;;;;;;;;;;;;-146.32;100.00;63746.28;4111320;28;20353;-82
2024/02/19 01:40:14;;;;;;;;;;;;;;;-146.32;100.00;63746.28;4125681;28;19937;-82
2024/02/19 01:42:37;;;;;;;;;;;;;;;-146.32;100.00;63746.28;4124183;28;20506;-83
2024/02/19 01:44:59;;;;;;;;;;;;;;;-146.32;100.00;63746.28;4109772;28;20006;-84
2024/02/19 01:47:20;;;;;;;;;;;;;;;-146.32;100.00;63746.28;4125450;28;20333;-83
2024/02/19 01:49:41;;;;;;;;;;;;;;;-146.32;100.00;63746.28;4124748;28;19937;-83
2024/02/19 01:52:02;;;;;;;;;;;;;;;-146.32;100.00;63746.28;4124814;28;20285;-82
2024/02/19 01:54:23;;;;;;;;;;;;;;;-146.32;100.00;63746.28;4124473;28;20068;-82
2024/02/19 01:56:43;;;;;;;;;;;;;;;-146.32;100.00;63746.28;4110757;28;19953;-82
2024/02/19 01:59:07;;;;;;;;;;;;;;;-146.32;100.00;63746.28;4123604;28;20050;-82
2024/02/19 02:01:27;;;;;;;;;;;;;;;-146.32;100.00;63746.28;4125113;28;19932;-84
2024/02/19 02:03:50;;;;;;;;;;;;;;;-146.32;100.00;63746.28;4123945;28;20582;-82
2024/02/19 02:06:11;;;;;;;;;;;;;;;-146.32;100.00;63746.28;4109849;28;19997;-82
2024/02/19 02:08:33;;;;;;;;;;;;;;;-146.32;100.00;63746.28;4124358;28;20289;-82
2024/02/19 02:10:54;;;;;;;;;;;;;;;-146.32;100.00;63746.28;4111095;28;20016;-82
2024/02/19 02:13:16;;;;;;;;;;;;;;;-146.32;100.00;63746.28;4123516;28;20503;-82
2024/02/19 02:15:38;;;;;;;;;;;;;;;-146.32;100.00;63746.28;4110064;28;19978;-82
2024/02/19 02:18:00;;;;;;;;;;;;;;;-146.32;100.00;63746.28;4111306;28;20028;-82
2024/02/19 02:20:21;;;;;;;;;;;;;;;-146.32;100.00;63746.28;4124881;28;19936;-83
2024/02/19 02:22:43;;;;;;;;;;;;;;;-146.32;100.00;63746.28;4123730;28;19937;-82
2024/02/19 02:25:07;;;;;;;;;;;;;;;-146.32;100.00;63746.28;4123584;28;20451;-83
2024/02/19 02:27:29;;;;;;;;;;;;;;;-146.32;100.00;63746.28;4123913;28;20013;-83
2024/02/19 02:29:51;;;;;;;;;;;;;;;-146.32;100.00;63746.28;4124189;28;19981;-83
2024/02/19 02:32:12;;;;;;;;;;;;;;;-146.32;100.00;63746.28;4123902;28;20434;-83
2024/02/19 02:34:36;;;;;;;;;;;;;;;-146.32;100.00;63746.28;4124762;28;20333;-83
2024/02/19 02:36:57;;;;;;;;;;;;;;;-146.32;100.00;63746.28;4109211;28;19938;-83
2024/02/19 02:39:18;;;;;;;;;;;;;;;-146.32;100.00;63746.28;4124921;28;20281;-82
2024/02/19 02:41:39;;;;;;;;;;;;;;;-146.32;100.00;63746.28;4123390;28;19942;-82
2024/02/19 02:44:01;;;;;;;;;;;;;;;-146.32;100.00;63746.28;4124043;28;19972;-83
2024/02/19 02:46:24;;;;;;;;;;;;;;;-146.32;100.00;63746.28;4114234;28;20021;-83
2024/02/19 02:48:45;;;;;;;;;;;;;;;-146.32;100.00;63746.28;4140371;28;19936;-83
2024/02/19 02:51:07;;;;;;;;;;;;;;;-146.32;100.00;63746.28;4140641;28;19960;-84
2024/02/19 02:53:28;;;;;;;;;;;;;;;-146.32;100.00;63746.28;4140805;28;20009;-84
2024/02/19 02:55:49;;;;;;;;;;;;;;;-146.32;100.00;63746.28;4124739;28;20021;-82
2024/02/19 02:58:10;;;;;;;;;;;;;;;-146.32;100.00;63746.28;4139604;28;20296;-83
2024/02/19 03:00:33;;;;;;;;;;;;;;;-146.32;100.00;63746.28;4139908;28;19933;-83
2024/02/19 03:02:54;;;;;;;;;;;;;;;-146.32;100.00;63746.28;4140275;28;19932;-84
2024/02/19 03:05:15;;;;;;;;;;;;;;;-146.32;100.00;63746.28;4140986;28;19994;-83
2024/02/19 03:07:39;;;;;;;;;;;;;;;-146.32;100.00;63746.28;4140966;28;19941;-83
2024/02/19 03:10:00;;;;;;;;;;;;;;;-146.32;100.00;63746.28;4132240;28;19933;-83
2024/02/19 03:12:21;;;;;;;;;;;;;;;-146.32;100.00;63746.28;4115583;28;19968;-83
2024/02/19 03:14:42;;;;;;;;;;;;;;;-146.32;100.00;63746.28;4139063;28;19932;-83
2024/02/19 03:17:05;;;;;;;;;;;;;;;-146.32;100.00;63746.28;4126340;28;19973;-83
2024/02/19 03:19:26;;;;;;;;;;;;;;;-146.32;100.00;63746.28;4138395;28;20387;-83
2024/02/19 03:21:47;;;;;;;;;;;;;;;-146.32;100.00;63746.28;4137930;28;19984;-84
2024/02/19 03:24:08;;;;;;;;;;;;;;;-146.32;100.00;63746.28;4124451;28;20392;-83
2024/02/19 03:26:28;;;;;;;;;;;;;;;-146.32;100.00;63746.28;4138768;28;20288;-83
2024/02/19 03:28:49;;;;;;;;;;;;;;;-146.32;100.00;63746.28;4124881;28;19960;-82
2024/02/19 03:31:10;;;;;;;;;;;;;;;-146.32;100.00;63746.28;4139207;28;19937;-83
2024/02/19 03:33:33;;;;;;;;;;;;;;;-146.32;100.00;63746.28;4124379;28;19932;-84
2024/02/19 03:35:54;;;;;;;;;;;;;;;-146.32;100.00;63746.28;4116965;28;19933;-82
2024/02/19 03:38:15;;;;;;;;;;;;;;;-146.32;100.00;63746.28;4125375;28;19977;-83
2024/02/19 03:40:36;;;;;;;;;;;;;;;-146.32;100.00;63746.28;4139866;28;20284;-83
2024/02/19 03:42:56;;;;;;;;;;;;;;;-146.32;100.00;63746.28;4137631;28;19932;-82
2024/02/19 03:45:18;;;;;;;;;;;;;;;-146.32;100.00;63746.28;4138173;28;19932;-84
2024/02/19 03:47:41;;;;;;;;;;;;;;;-146.32;100.00;63746.28;4125048;28;20463;-83
2024/02/19 03:50:06;;;;;;;;;;;;;;;-146.32;100.00;63746.28;4139645;28;19988;-84
2024/02/19 03:52:33;;;;;;;;;;;;;;;-146.32;100.00;63746.28;4139047;28;19980;-83
2024/02/19 03:54:54;;;;;;;;;;;;;;;-146.32;100.00;63746.28;4124621;28;19932;-83
2024/02/19 03:57:15;;;;;;;;;;;;;;;-146.32;100.00;63746.28;4124072;28;19933;-83
2024/02/19 03:59:36;;;;;;;;;;;;;;;-146.32;100.00;63746.28;4139717;28;20454;-83
2024/02/19 04:01:59;;;;;;;;;;;;;;;-146.32;100.00;63746.28;4137953;28;20029;-83
2024/02/19 04:04:20;;;;;;;;;;;;;;;-146.32;100.00;63746.28;4139400;28;19939;-84
2024/02/19 04:06:43;;;;;;;;;;;;;;;-146.32;100.00;63746.28;4124903;28;19976;-83
2024/02/19 04:09:04;;;;;;;;;;;;;;;-146.32;100.00;63746.28;4124638;28;19932;-83
2024/02/19 04:11:25;;;;;;;;;;;;;;;-146.32;100.00;63746.28;4125640;28;19973;-82
2024/02/19 04:13:46;;;;;;;;;;;;;;;-146.32;100.00;63746.28;4111540;28;19978;-83
2024/02/19 04:16:08;;;;;;;;;;;;;;;-146.32;100.00;63746.28;4123929;28;20340;-83
2024/02/19 04:18:29;;;;;;;;;;;;;;;-146.32;100.00;63746.28;4138825;28;19932;-83
2024/02/19 04:20:50;;;;;;;;;;;;;;;-146.32;100.00;63746.28;4138192;28;20015;-85
2024/02/19 04:23:12;;;;;;;;;;;;;;;-146.32;100.00;63746.28;4139456;28;19953;-84
2024/02/19 04:25:33;;;;;;;;;;;;;;;-146.32;100.00;63746.28;4139246;28;20011;-83
2024/02/19 04:27:54;;;;;;;;;;;;;;;-146.32;100.00;63746.28;4123900;28;19933;-83
2024/02/19 04:30:16;;;;;;;;;;;;;;;-146.32;100.00;63746.28;4125101;28;20016;-83
2024/02/19 04:32:37;;;;;;;;;;;;;;;-146.32;100.00;63746.28;4142903;28;19983;-85
2024/02/19 04:34:58;;;;;;;;;;;;;;;-146.32;100.00;63746.28;4126944;28;19933;-83
2024/02/19 04:37:19;;;;;;;;;;;;;;;-146.32;100.00;63746.28;4141946;28;19968;-83
2024/02/19 04:39:42;;;;;;;;;;;;;;;-146.32;100.00;63746.28;4128384;28;20088;-83
2024/02/19 04:42:03;;;;;;;;;;;;;;;-146.32;100.00;63746.28;4141348;28;20032;-84
2024/02/19 04:44:24;;;;;;;;;;;;;;;-146.32;100.00;63746.28;4125966;28;20000;-84
2024/02/19 04:46:44;;;;;;;;;;;;;;;-146.32;100.00;63746.28;4141203;28;19957;-83
2024/02/19 04:49:05;;;;;;;;;;;;;;;-146.32;100.00;63746.28;4141321;28;19945;-84
2024/02/19 04:51:28;;;;;;;;;;;;;;;-146.32;100.00;63746.28;4142830;28;20335;-83
2024/02/19 04:53:49;;;;;;;;;;;;;;;-146.32;100.00;63746.28;4121704;28;20478;-84
2024/02/19 04:56:16;;;;;;;;;;;;;;;-146.32;100.00;63746.28;4142862;28;19933;-83
2024/02/19 04:58:37;;;;;;;;;;;;;;;-146.32;100.00;63746.28;4134202;28;20495;-83
2024/02/19 05:01:00;;;;;;;;;;;;;;;-146.32;100.00;63746.28;4142980;28;19994;-82
2024/02/19 05:03:21;;;;;;;;;;;;;;;-146.32;100.00;63746.28;4142687;28;19932;-84
2024/02/19 05:05:42;;;;;;;;;;;;;;;-146.32;100.00;63746.28;4126766;28;19937;-83
2024/02/19 05:08:04;;;;;;;;;;;;;;;-146.32;100.00;63746.28;4141940;28;19936;-83
2024/02/19 05:10:24;;;;;;;;;;;;;;;-146.32;100.00;63746.28;4142427;28;19932;-82
2024/02/19 05:12:47;;;;;;;;;;;;;;;-146.32;100.00;63746.28;4126301;28;20025;-83
2024/02/19 05:15:09;;;;;;;;;;;;;;;-146.32;100.00;63746.28;4141791;28;19940;-83
2024/02/19 05:17:30;;;;;;;;;;;;;;;-146.32;100.00;63746.28;4114188;28;20094;-82
2024/02/19 05:19:51;;;;;;;;;;;;;;;-146.32;100.00;63746.28;4139999;28;19932;-83
2024/02/19 05:22:12;;;;;;;;;;;;;;;-146.32;100.00;63746.28;4141141;28;19983;-83
2024/02/19 05:24:33;;;;;;;;;;;;;;;-146.32;100.00;63746.28;4140680;28;19931;-84
2024/02/19 05:26:54;;;;;;;;;;;;;;;-146.32;100.00;63746.28;4141911;28;19937;-83
2024/02/19 05:29:17;;;;;;;;;;;;;;;-146.32;100.00;63746.28;4127215;28;19932;-83
2024/02/19 05:31:38;;;;;;;;;;;;;;;-146.32;100.00;63746.28;4141102;28;19936;-82
2024/02/19 05:33:59;;;;;;;;;;;;;;;-146.32;100.00;63746.28;4127320;28;19952;-84
2024/02/19 05:36:20;;;;;;;;;;;;;;;-146.32;100.00;63746.28;4141449;28;19937;-83
2024/02/19 05:38:41;;;;;;;;;;;;;;;-146.32;100.00;63746.28;4141569;28;19936;-83
2024/02/19 05:41:02;;;;;;;;;;;;;;;-146.32;100.00;63746.28;4141732;28;19941;-83
2024/02/19 05:43:23;;;;;;;;;;;;;;;-146.32;100.00;63746.28;4139685;28;19981;-82
2024/02/19 05:45:46;;;;;;;;;;;;;;;-146.32;100.00;63746.28;4132829;28;20423;-82
2024/02/19 05:48:08;;;;;;;;;;;;;;;-146.32;100.00;63746.28;4126912;28;19938;-82
2024/02/19 05:50:30;;;;;;;;;;;;;;;-146.32;100.00;63746.28;4141657;28;19933;-83
2024/02/19 05:52:51;;;;;;;;;;;;;;;-146.32;100.00;63746.28;4141178;28;19941;-81
2024/02/19 05:55:11;;;;;;;;;;;;;;;-146.32;100.00;63746.28;4141265;28;19997;-83
2024/02/19 05:57:32;;;;;;;;;;;;;;;-146.32;100.00;63746.28;4140951;28;19932;-82
2024/02/19 05:59:53;;;;;;;;;;;;;;;-146.32;100.00;63746.28;4142235;28;20017;-81
2024/02/19 06:02:15;;;;;;;;;;;;;;;-146.32;100.00;63746.28;4141901;28;19948;-83
2024/02/19 06:04:36;;;;;;;;;;;;;;;-146.32;100.00;63746.28;4141209;28;19939;-81
2024/02/19 06:06:59;;;;;;;;;;;;;;;-146.32;100.00;63746.28;4140343;28;19951;-81
2024/02/19 06:09:22;;;;;;;;;;;;;;;-146.32;100.00;63746.28;4140582;28;19988;-84
2024/02/19 06:11:44;;;;;;;;;;;;;;;-146.32;100.00;63746.28;4126472;28;19936;-81
2024/02/19 06:14:05;;;;;;;;;;;;;;;-146.32;100.00;63746.28;4140986;28;20371;-82
2024/02/19 06:16:27;;;;;;;;;;;;;;;-146.32;100.00;63746.28;4133093;28;20356;-84
2024/02/19 06:18:52;;;;;;;;;;;;;;;-146.32;100.00;63746.28;4127577;28;20016;-84
2024/02/19 06:21:13;;;;;;;;;;;;;;;-146.32;100.00;63746.28;4122636;28;20049;-82
2024/02/19 06:23:37;;;;;;;;;;;;;;;-146.32;100.00;63746.28;4140488;28;19958;-82
2024/02/19 06:25:59;;;;;;;;;;;;;;;-146.32;100.00;63746.28;4140286;28;20008;-82
2024/02/19 06:28:20;;;;;;;;;;;;;;;-146.32;100.00;63746.28;4139468;28;20402;-82
2024/02/19 06:30:41;;;;;;;;;;;;;;;-146.32;100.00;63746.28;4140776;28;19976;-84
2024/02/19 06:33:04;;;;;;;;;;;;;;;-146.32;100.00;63746.28;4125668;28;19932;-82
2024/02/19 06:35:26;;;;;;;;;;;;;;;-146.32;100.00;63746.28;4140123;28;20013;-84
2024/02/19 06:37:48;;;;;;;;;;;;;;;-146.32;100.00;63746.28;4140258;28;19932;-81
2024/02/19 06:40:09;;;;;;;;;;;;;;;-146.32;100.00;63746.28;4138813;28;19957;-84
2024/02/19 06:42:30;;;;;;;;;;;;;;;-146.32;100.00;63746.28;4141475;28;19936;-83
2024/02/19 06:44:51;;;;;;;;;;;;;;;-146.32;100.00;63746.28;4140687;28;19976;-84
2024/02/19 06:47:13;;;;;;;;;;;;;;;-146.32;100.00;63746.28;4125968;28;19976;-83
2024/02/19 06:49:34;;;;;;;;;;;;;;;-146.32;100.00;63746.28;4138359;28;19961;-83
2024/02/19 06:51:56;;;;;;;;;;;;;;;-146.32;100.00;63746.28;4138702;28;19940;-82
2024/02/19 06:54:17;;;;;;;;;;;;;;;-146.32;100.00;63746.28;4140320;28;20706;-82
2024/02/19 06:56:37;;;;;;;;;;;;;;;-146.32;100.00;63746.28;4139627;28;19932;-83
2024/02/19 06:58:58;;;;;;;;;;;;;;;-146.32;100.00;63746.28;4139350;28;20390;-83
2024/02/19 07:01:19;;;;;;;;;;;;;;;-146.32;100.00;63746.28;4125922;28;19936;-82
2024/02/19 07:03:40;;;;;;;;;;;;;;;-146.32;100.00;63746.28;4140024;28;19941;-83
2024/02/19 07:06:01;;;;;;;;;;;;;;;-146.32;100.00;63746.28;4125159;28;19937;-82
2024/02/19 07:08:26;;;;;;;;;;;;;;;-146.32;100.00;63746.28;4126883;28;20060;-84
2024/02/19 07:10:47;;;;;;;;;;;;;;;-146.32;100.00;63746.28;4141419;28;20295;-82
2024/02/19 07:13:08;;;;;;;;;;;;;;;-146.32;100.00;63746.28;4139268;28;20028;-81
2024/02/19 07:15:29;;;;;;;;;;;;;;;-146.32;100.00;63746.28;4139911;28;20395;-82
2024/02/19 15:53:21;;;;;;;;;;;;;;;-146.32;100.00;63746.28;4120938;28;20009;-82
2024/02/19 15:55:45;;;;;;;;;;;;;;;-146.32;100.00;63746.28;4122237;28;20420;-83
2024/02/19 15:58:06;;;;;;;;;;;;;;;-146.32;100.00;63746.28;4114109;28;20357;-81
2024/02/19 16:00:29;;;;;;;;;;;;;;;-146.32;100.00;63746.28;4124508;28;19937;-82
2024/02/19 16:02:51;;;;;;;;;;;;;;;-146.32;100.00;63746.28;4106441;28;19932;-83
2024/02/19 16:05:12;;;;;;;;;;;;;;;-146.32;100.00;63746.28;4122183;28;19980;-82
2024/02/19 16:07:33;;;;;;;;;;;;;;;-146.32;100.00;63746.28;4105810;28;19932;-83
2024/02/19 16:09:55;;;;;;;;;;;;;;;-146.32;100.00;63746.28;4121201;28;19942;-83
2024/02/19 16:12:16;;;;;;;;;;;;;;;-146.32;100.00;63746.28;4120376;28;19936;-82
2024/02/19 16:14:38;;;;;;;;;;;;;;;-146.32;100.00;63746.28;4124139;28;20375;-82
2024/02/19 16:17:00;;;;;;;;;;;;;;;-146.32;100.00;63746.28;4108520;28;19932;-83
2024/02/19 16:19:21;;;;;;;;;;;;;;;-146.32;100.00;63746.28;4106169;28;19981;-82
2024/02/19 16:21:42;;;;;;;;;;;;;;;-146.32;100.00;63746.28;4122047;28;19936;-82
2024/02/19 16:24:02;;;;;;;;;;;;;;;-146.32;100.00;63746.28;4111058;28;19978;-83
2024/02/19 16:26:26;;;;;;;;;;;;;;;-146.32;100.00;63746.28;4121352;28;20443;-84
2024/02/19 16:28:46;;;;;;;;;;;;;;;-146.32;100.00;63746.28;4125964;28;19940;-83
2024/02/19 16:31:07;;;;;;;;;;;;;;;-146.32;100.00;63746.28;4124891;28;19933;-83
2024/02/19 16:33:28;;;;;;;;;;;;;;;-146.32;100.00;63746.28;4111274;28;19937;-83
2024/02/19 16:35:49;;;;;;;;;;;;;;;-146.32;100.00;63746.28;4126601;28;19937;-82
2024/02/19 16:38:09;;;;;;;;;;;;;;;-146.32;100.00;63746.28;4112343;28;19985;-82
2024/02/19 16:40:30;;;;;;;;;;;;;;;-146.32;100.00;63746.28;4110621;28;19958;-83
2024/02/19 16:42:52;;;;;;;;;;;;;;;-146.32;100.00;63746.28;4125982;28;19932;-83
2024/02/19 16:45:13;;;;;;;;;;;;;;;-146.32;100.00;63746.28;4126746;28;20766;-83
2024/02/19 16:47:33;;;;;;;;;;;;;;;-146.32;100.00;63746.28;4111143;28;19933;-82
2024/02/19 16:49:54;;;;;;;;;;;;;;;-146.32;100.00;63746.28;4125624;28;20578;-82
2024/02/19 16:52:15;;;;;;;;;;;;;;;-146.32;100.00;63746.28;4138110;28;19948;-82
2024/02/19 16:54:35;;;;;;;;;;;;;;;-146.32;100.00;63746.28;4139609;28;19936;-82
2024/02/19 16:56:56;;;;;;;;;;;;;;;-146.32;100.00;63746.28;4141972;28;20283;-84
2024/02/19 16:59:21;;;;;;;;;;;;;;;-146.32;100.00;63746.28;4130281;28;20047;-84
2024/02/19 17:01:41;;;;;;;;;;;;;;;-146.32;100.00;63746.28;4134800;28;19972;-83
2024/02/19 17:04:02;;;;;;;;;;;;;;;-146.32;100.00;63746.28;4126681;28;19936;-86
2024/02/19 17:06:24;;;;;;;;;;;;;;;-146.32;100.00;63746.28;4141972;28;20300;-82
2024/02/19 17:08:44;;;;;;;;;;;;;;;-146.32;100.00;63746.28;4141773;28;19976;-82
2024/02/19 17:11:05;;;;;;;;;;;;;;;-146.32;100.00;63746.28;4142739;28;20448;-81
2024/02/19 17:13:26;;;;;;;;;;;;;;;-146.32;100.00;63746.28;4130136;28;19969;-82
2024/02/19 17:15:51;;;;;;;;;;;;;;;-146.32;100.00;63746.28;4144647;28;19983;-82
2024/02/19 17:18:12;;;;;;;;;;;;;;;-146.32;100.00;63746.28;4141818;28;19953;-83
2024/02/19 17:20:33;;;;;;;;;;;;;;;-146.32;100.00;63746.28;4134162;28;19931;-83
2024/02/19 17:22:55;;;;;;;;;;;;;;;-146.32;100.00;63746.28;4133834;28;19980;-83
2024/02/19 17:25:15;;;;;;;;;;;;;;;-146.32;100.00;63746.28;4127060;28;20522;-81
2024/02/19 17:27:38;;;;;;;;;;;;;;;-146.32;100.00;63746.28;4140835;28;19975;-82
2024/02/19 17:30:12;;;;;;;;;;;;;;;-146.32;100.00;63746.28;4141490;28;20025;-80
2024/02/19 17:32:38;;;;;;;;;;;;;;;-146.32;100.00;63746.28;4143016;28;19944;-82
2024/02/19 17:35:00;;;;;;;;;;;;;;;-146.32;100.00;63746.28;4126664;28;19951;-82
2024/02/19 17:37:22;;;;;;;;;;;;;;;-146.32;100.00;63746.28;4126708;28;20012;-82
2024/02/19 17:39:51;;;;;;;;;;;;;;;-146.32;100.00;63746.28;4127863;28;19980;-81
2024/02/19 17:42:24;;;;;;;;;;;;;;;-146.32;100.00;63746.28;4131525;28;19990;-82
2024/02/19 17:44:47;;;;;;;;;;;;;;;-146.32;100.00;63746.28;4141720;28;19972;-83
2024/02/19 17:47:10;;;;;;;;;;;;;;;-146.32;100.00;63746.28;4141358;28;20020;-83
2024/02/19 17:49:33;;;;;;;;;;;;;;;-146.32;100.00;63746.28;4131439;28;20032;-84
2024/02/19 17:51:55;;;;;;;;;;;;;;;-146.32;100.00;63746.28;4127387;28;19933;-83
2024/02/19 17:54:16;;;;;;;;;;;;;;;-146.32;100.00;63746.28;4142957;28;19991;-82
2024/02/19 17:59:24;;;;;;;;;;;;;;;-146.32;100.00;63746.28;4143735;28;19932;-81
2024/02/19 18:01:50;;;;;;;;;;;;;;;-146.32;100.00;63746.28;4125727;28;20360;-80
2024/02/19 18:04:12;;;;;;;;;;;;;;;-146.32;100.00;63746.28;4129765;28;20395;-82
2024/02/19 18:06:37;;;;;;;;;;;;;;;-146.32;100.00;63746.28;4139005;28;19936;-81
2024/02/19 18:08:58;;;;;;;;;;;;;;;-146.32;100.00;63746.28;4133441;28;19986;-81
2024/02/19 18:11:19;;;;;;;;;;;;;;;-146.32;100.00;63746.28;4128377;28;19989;-82
2024/02/19 18:13:41;;;;;;;;;;;;;;;-146.32;100.00;63746.28;4142429;28;19933;-82
2024/02/19 18:16:06;;;;;;;;;;;;;;;-146.32;100.00;63746.28;4129159;28;19936;-83
2024/02/19 18:18:28;;;;;;;;;;;;;;;-146.32;100.00;63746.28;4129362;28;19982;-87
2024/02/19 18:20:59;;;;;;;;;;;;;;;;;;;;;
2024/02/19 18:23:55;;;;;;;;;;;;;;;-146.32;100.00;63746.28;4132751;28;19961;-89
2024/02/19 18:26:18;;;;;;;;;;;;;;;-146.32;100.00;63746.28;4101290;28;20069;-85
2024/02/19 18:28:51;;;;;;;;;;;;;;;-146.32;100.00;63746.28;4140231;28;20020;-84
2024/02/19 18:31:20;;;;;;;;;;;;;;;-146.32;100.00;63746.28;4116858;28;20039;-84
2024/02/19 18:34:18;;;;;;;;;;;;;;;-146.32;100.00;63746.28;4145546;28;19936;-83
2024/02/19 18:36:45;;;;;;;;;;;;;;;-146.32;100.00;63746.28;4142134;28;20020;-85
2024/02/19 18:39:07;;;;;;;;;;;;;;;-146.32;100.00;63746.28;4140422;28;19937;-88
2024/02/19 18:41:34;;;;;;;;;;;;;;;-146.32;100.00;63746.28;4142728;28;19936;-88
2024/02/19 18:44:01;;;;;;;;;;;;;;;-146.32;100.00;63746.28;4140977;28;20411;-88
2024/02/19 18:46:27;;;;;;;;;;;;;;;-146.32;100.00;63746.28;4128772;28;19981;-87
2024/02/19 18:48:48;;;;;;;;;;;;;;;-146.32;100.00;63746.28;4123798;28;19941;-87
2024/02/19 18:51:11;;;;;;;;;;;;;;;-146.32;100.00;63746.28;4139398;28;19933;-87
2024/02/19 18:53:33;;;;;;;;;;;;;;;-146.32;100.00;63746.28;4142511;28;20484;-87
2024/02/19 18:55:58;;;;;;;;;;;;;;;-146.32;100.00;63746.28;4126215;28;19975;-84
2024/02/19 18:58:26;;;;;;;;;;;;;;;-146.32;100.00;63746.28;4141233;28;19932;-87
2024/02/19 19:00:47;;;;;;;;;;;;;;;-146.32;100.00;63746.28;4139008;28;19937;-85
2024/02/19 19:03:20;;;;;;;;;;;;;;;-146.32;100.00;63746.28;4125905;28;20012;-85
2024/02/19 19:05:43;;;;;;;;;;;;;;;-146.32;100.00;63746.28;4126103;28;19976;-87
2024/02/19 19:08:08;;;;;;;;;;;;;;;-146.32;100.00;63746.28;4136795;28;19933;-87
2024/02/19 19:10:28;;;;;;;;;;;;;;;-146.32;100.00;63746.28;4127901;28;19968;-86
2024/02/19 19:12:50;;;;;;;;;;;;;;;-146.32;100.00;63746.28;4127810;28;19933;-87
2024/02/19 19:15:14;;;;;;;;;;;;;;;-146.32;100.00;63746.28;4141577;28;19936;-86
2024/02/19 19:17:35;;;;;;;;;;;;;;;-146.32;100.00;63746.28;4140910;28;20336;-87
2024/02/19 19:19:56;;;;;;;;;;;;;;;-146.32;100.00;63746.28;4126626;28;19932;-86
2024/02/19 19:22:19;;;;;;;;;;;;;;;-146.32;100.00;63746.28;4125787;28;19932;-89
2024/02/19 19:24:42;;;;;;;;;;;;;;;-146.32;100.00;63746.28;4127437;28;19961;-86
2024/02/19 19:29:41;;;;;;;;;;;;;;;-146.32;100.00;63746.28;4143806;28;20011;-86
2024/02/19 19:32:05;;;;;;;;;;;;;;;-146.32;100.00;63746.28;4142081;28;19940;-86
2024/02/19 19:34:28;;;;;;;;;;;;;;;-146.32;100.00;63746.28;4140567;28;20439;-87
2024/02/19 19:37:00;;;;;;;;;;;;;;;-146.32;100.00;63746.28;4130017;28;20026;-87
2024/02/19 19:39:26;;;;;;;;;;;;;;;-146.32;100.00;63746.28;4133022;28;19976;-88
2024/02/19 19:41:53;;;;;;;;;;;;;;;-146.32;100.00;63746.28;4142375;28;20355;-88
2024/02/19 19:44:17;;;;;;;;;;;;;;;-146.32;100.00;63746.28;4130514;28;19981;-86
2024/02/19 19:46:40;;;;;;;;;;;;;;;-146.32;100.00;63746.28;4134543;28;19973;-91
2024/02/19 19:49:04;;;;;;;;;;;;;;;-146.32;100.00;63746.28;4139642;28;19937;-87
2024/02/19 19:51:25;;;;;;;;;;;;;;;-146.32;100.00;63746.28;4129332;28;20427;-87
2024/02/19 19:53:55;;;;;;;;;;;;;;;-146.32;100.00;63746.28;4141127;28;19935;-89
2024/02/19 19:56:19;;;;;;;;;;;;;;;-146.32;100.00;63746.28;4140594;28;19985;-88
2024/02/19 19:58:43;;;;;;;;;;;;;;;-146.32;100.00;63746.28;4133551;28;19936;-90
2024/02/19 20:01:09;;;;;;;;;;;;;;;-146.32;100.00;63746.28;4128205;28;19932;-91
2024/02/19 20:03:33;;;;;;;;;;;;;;;-146.32;100.00;63746.28;4132154;28;19951;-88
2024/02/19 20:05:58;;;;;;;;;;;;;;;-146.32;100.00;63746.28;4147475;28;19953;-87
2024/02/19 20:08:30;;;;;;;;;;;;;;;-146.32;100.00;63746.28;4148738;28;19936;-90
2024/02/19 20:11:05;;;;;;;;;;;;;;;-146.32;100.00;63746.28;4155284;28;19941;-87
2024/02/19 20:13:30;;;;;;;;;;;;;;;-146.32;100.00;63746.28;4143620;28;19936;-86
2024/02/19 20:15:58;;;;;;;;;;;;;;;-146.32;100.00;63746.28;4159956;28;19932;-87
2024/02/19 20:18:23;;;;;;;;;;;;;;;-146.32;100.00;63746.28;4157878;28;19999;-86
2024/02/19 20:20:44;;;;;;;;;;;;;;;-146.32;100.00;63746.28;4140876;28;19932;-86
2024/02/19 20:23:09;;;;;;;;;;;;;;;-146.32;100.00;63746.28;4140818;28;19936;-88
2024/02/19 20:25:33;;;;;;;;;;;;;;;-146.32;100.00;63746.28;4149789;28;19964;-88
2024/02/19 20:27:57;;;;;;;;;;;;;;;-146.32;100.00;63746.28;4152189;28;20042;-88
2024/02/19 20:30:21;;;;;;;;;;;;;;;-146.32;100.00;63746.28;4148412;28;19932;-88
2024/02/19 20:32:48;;;;;;;;;;;;;;;-146.32;100.00;63746.28;4132775;28;20064;-90
2024/02/19 20:35:09;;;;;;;;;;;;;;;-146.32;100.00;63746.28;4144296;28;19932;-88